createdAt,value
2022-09-20T00:03:43.628Z,98483.41
2022-09-20T00:08:46.657Z,98483.16
2022-09-20T00:13:50.771Z,98481.42
2022-09-20T00:18:55.399Z,98490.33
2022-09-20T00:23:58.172Z,98496.14
2022-09-20T00:29:00.279Z,98496.08
2022-09-20T00:34:28.149Z,98492.08
2022-09-20T00:39:29.955Z,98492.54
2022-09-20T00:44:51.452Z,98496.86
2022-09-20T00:49:59.704Z,98500.29
2022-09-20T00:55:06.978Z,98501.77
2022-09-20T01:00:11.001Z,98493.95
2022-09-20T01:05:15.357Z,98495.48
2022-09-20T01:10:17.526Z,98500.58
2022-09-20T01:15:20.733Z,98499.29
2022-09-20T01:20:26.393Z,98501.34
2022-09-20T01:25:46.382Z,98495.31
2022-09-20T01:31:04.453Z,98498.30
2022-09-20T01:36:09.285Z,98502.61
2022-09-20T01:41:33.753Z,98504.55
2022-09-20T01:46:37.220Z,98505.21
2022-09-20T01:52:00.851Z,98504.23
2022-09-20T01:57:37.990Z,98506.80
2022-09-20T02:02:57.273Z,98503.30
2022-09-20T02:08:24.090Z,98506.08
2022-09-20T02:13:40.977Z,98507.36
2022-09-20T02:19:20.541Z,98507.41
2022-09-20T02:24:38.915Z,98510.82
2022-09-20T02:30:04.477Z,98511.83
2022-09-20T02:35:18.391Z,98514.23
2022-09-20T02:40:46.287Z,98516.23
2022-09-20T02:46:05.194Z,98512.37
2022-09-20T02:51:19.905Z,98514.20
2022-09-20T02:56:45.860Z,98519.00
2022-09-20T03:02:23.331Z,98526.75
2022-09-20T03:07:54.697Z,98524.54
2022-09-20T03:13:38.861Z,98529.90
2022-09-20T03:18:59.352Z,98531.24
2022-09-20T03:24:16.396Z,98533.97
2022-09-20T03:29:49.263Z,98536.36
2022-09-20T03:35:15.543Z,98537.04
2022-09-20T03:40:46.236Z,98544.23
2022-09-20T03:46:18.744Z,98542.89
2022-09-20T03:51:58.037Z,98542.27
2022-09-20T03:57:28.830Z,98545.38
2022-09-20T04:02:53.970Z,98554.64
2022-09-20T04:08:08.637Z,98555.52
2022-09-20T04:13:28.925Z,98555.42
2022-09-20T04:18:33.321Z,98557.55
2022-09-20T04:24:12.406Z,98560.20
2022-09-20T04:29:40.751Z,98560.35
2022-09-20T04:35:32.288Z,98569.79
2022-09-20T04:41:16.655Z,98574.64
2022-09-20T04:46:57.592Z,98573.45
2022-09-20T04:52:14.183Z,98572.38
2022-09-20T04:57:34.901Z,98578.42
2022-09-20T05:02:42.626Z,98578.84
2022-09-20T05:08:28.188Z,98585.02
2022-09-20T05:13:46.080Z,98590.66
2022-09-20T05:19:04.202Z,98598.77
2022-09-20T05:24:28.069Z,98603.63
2022-09-20T05:29:50.567Z,98607.46
2022-09-20T05:35:14.067Z,98606.39
2022-09-20T05:40:46.085Z,98603.14
2022-09-20T05:46:09.193Z,98610.04
2022-09-20T05:51:20.609Z,98614.73
2022-09-20T05:56:41.211Z,98612.27
2022-09-20T06:02:03.594Z,98611.89
2022-09-20T06:07:17.306Z,98617.48
2022-09-20T06:12:36.641Z,98614.71
2022-09-20T06:17:49.513Z,98619.55
2022-09-20T06:22:55.373Z,98626.13
2022-09-20T06:28:12.504Z,98633.42
2022-09-20T06:33:17.308Z,98635.77
2022-09-20T06:39:17.233Z,98636.48
2022-09-20T06:44:19.100Z,98639.86
2022-09-20T06:49:22.414Z,98641.00
2022-09-20T06:54:24.407Z,98646.19
2022-09-20T06:59:26.895Z,98653.85
2022-09-20T07:04:28.876Z,98657.59
2022-09-20T07:09:31.457Z,98653.59
2022-09-20T07:14:33.206Z,98662.23
2022-09-20T07:19:36.761Z,98669.29
2022-09-20T07:24:39.152Z,98675.04
2022-09-20T07:29:41.342Z,98678.05
2022-09-20T07:35:03.023Z,98678.61
2022-09-20T07:40:19.440Z,98681.32
2022-09-20T07:45:21.256Z,98682.70
2022-09-20T07:50:23.228Z,98682.49
2022-09-20T07:55:28.716Z,98685.65
2022-09-20T08:00:30.477Z,98693.13
2022-09-20T08:05:32.193Z,98695.77
2022-09-20T08:10:33.958Z,98701.88
2022-09-20T08:15:36.038Z,98699.80
2022-09-20T08:20:39.124Z,98701.70
2022-09-20T08:25:40.972Z,98703.42
2022-09-20T08:31:03.043Z,98712.67
2022-09-20T08:36:21.014Z,98708.05
2022-09-20T08:41:34.015Z,98715.05
2022-09-20T08:46:42.374Z,98716.67
2022-09-20T08:51:48.646Z,98718.77
2022-09-20T08:56:51.166Z,98725.58
2022-09-20T09:01:53.714Z,98729.60
2022-09-20T09:06:55.551Z,98730.20
2022-09-20T09:11:58.941Z,98730.46
2022-09-20T09:17:01.162Z,98730.17
2022-09-20T09:22:05.535Z,98728.38
2022-09-20T09:27:19.456Z,98724.45
2022-09-20T09:32:31.133Z,98720.80
2022-09-20T09:37:33.572Z,98724.42
2022-09-20T09:42:36.156Z,98726.73
2022-09-20T09:47:51.321Z,98725.83
2022-09-20T09:53:13.417Z,98726.75
2022-09-20T09:58:31.662Z,98724.25
2022-09-20T10:04:01.401Z,98721.90
2022-09-20T10:09:03.362Z,98716.06
2022-09-20T10:14:29.686Z,98711.24
2022-09-20T10:19:34.601Z,98707.59
2022-09-20T10:25:03.002Z,98713.34
2022-09-20T10:30:14.468Z,98720.77
2022-09-20T10:36:04.373Z,98717.41
2022-09-20T10:42:14.518Z,98708.02
2022-09-20T10:47:22.267Z,98716.33
2022-09-20T10:52:51.116Z,98727.86
2022-09-20T10:58:26.903Z,98731.11
2022-09-20T11:04:09.229Z,98726.67
2022-09-20T11:09:17.416Z,98721.48
2022-09-20T11:14:29.556Z,98724.73
2022-09-20T11:20:07.672Z,98731.98
2022-09-20T11:25:29.482Z,98729.35
2022-09-20T11:30:36.690Z,98729.55
2022-09-20T11:35:46.260Z,98729.48
2022-09-20T11:41:05.180Z,98726.90
2022-09-20T11:46:10.718Z,98724.31
2022-09-20T11:51:36.259Z,98726.44
2022-09-20T11:56:56.802Z,98724.33
2022-09-20T12:02:01.962Z,98720.18
2022-09-20T12:07:19.419Z,98723.48
2022-09-20T12:12:36.720Z,98726.88
2022-09-20T12:17:47.382Z,98723.93
2022-09-20T12:22:49.294Z,98721.91
2022-09-20T12:27:51.149Z,98715.60
2022-09-20T12:32:56.381Z,98708.73
2022-09-20T12:38:25.608Z,98708.23
2022-09-20T12:43:30.926Z,98709.19
2022-09-20T12:48:37.049Z,98711.42
2022-09-20T12:53:38.805Z,98708.83
2022-09-20T12:58:54.702Z,98710.02
2022-09-20T13:04:35.418Z,98711.58
2022-09-20T13:09:38.022Z,98707.34
2022-09-20T13:14:41.155Z,98709.34
2022-09-20T13:19:44.816Z,98707.81
2022-09-20T13:24:49.178Z,98707.66
2022-09-20T13:29:51.802Z,98705.42
2022-09-20T13:35:12.435Z,98711.54
2022-09-20T13:40:23.754Z,98710.94
2022-09-20T13:45:26.782Z,98709.65
2022-09-20T13:50:35.491Z,98712.44
2022-09-20T13:55:39.033Z,98716.39
2022-09-20T14:00:47.742Z,98717.62
2022-09-20T14:05:53.452Z,98714.70
2022-09-20T14:11:17.705Z,98712.64
2022-09-20T14:16:23.336Z,98716.27
2022-09-20T14:21:31.852Z,98715.80
2022-09-20T14:26:39.779Z,98717.30
2022-09-20T14:31:46.204Z,98722.37
2022-09-20T14:36:50.003Z,98724.61
2022-09-20T14:41:52.130Z,98724.12
2022-09-20T14:46:54.492Z,98728.77
2022-09-20T14:52:24.589Z,98728.33
2022-09-20T14:57:27.898Z,98733.91
2022-09-20T15:02:30.030Z,98735.20
2022-09-20T15:07:31.778Z,98735.13
2022-09-20T15:12:33.522Z,98738.45
2022-09-20T15:17:35.717Z,98742.55
2022-09-20T15:22:38.677Z,98744.36
2022-09-20T15:27:41.275Z,98750.52
2022-09-20T15:32:48.157Z,98753.89
2022-09-20T15:37:50.189Z,98763.61
2022-09-20T15:42:56.691Z,98772.35
2022-09-20T15:48:03.411Z,98777.79
2022-09-20T15:53:05.935Z,98778.81
2022-09-20T15:58:07.689Z,98779.67
2022-09-20T16:03:09.609Z,98789.97
2022-09-20T16:08:11.691Z,98786.39
2022-09-20T16:13:14.040Z,98797.85
2022-09-20T16:18:34.902Z,98809.44
2022-09-20T16:23:39.145Z,98811.16
2022-09-20T16:28:46.514Z,98813.38
2022-09-20T16:33:49.645Z,98819.95
2022-09-20T16:38:54.233Z,98825.82
2022-09-20T16:43:56.420Z,98835.27
2022-09-20T16:49:01.055Z,98844.89
2022-09-20T16:54:06.793Z,98850.26
2022-09-20T16:59:10.092Z,98856.20
2022-09-20T17:04:14.303Z,98858.80
2022-09-20T17:09:17.534Z,98860.02
2022-09-20T17:14:21.165Z,98865.34
2022-09-20T17:19:23.957Z,98876.09
2022-09-20T17:24:27.478Z,98872.63
2022-09-20T17:29:29.945Z,98879.66
2022-09-20T17:34:31.817Z,98885.17
2022-09-20T17:39:33.680Z,98892.45
2022-09-20T17:44:39.267Z,98905.73
2022-09-20T17:49:41.019Z,98912.16
2022-09-20T17:54:42.831Z,98913.89
2022-09-20T17:59:44.903Z,98922.05
2022-09-20T18:04:47.193Z,98930.41
2022-09-20T18:09:49.014Z,98934.96
2022-09-20T18:14:50.848Z,98933.73
2022-09-20T18:19:52.584Z,98938.00
2022-09-20T18:25:01.255Z,98945.89
2022-09-20T18:30:03.333Z,98950.09
2022-09-20T18:35:06.217Z,98961.72
2022-09-20T18:40:23.130Z,98968.35
2022-09-20T18:45:38.472Z,98976.01
2022-09-20T18:50:40.304Z,98977.56
2022-09-20T18:55:43.453Z,98982.36
2022-09-20T19:00:49.307Z,98977.67
2022-09-20T19:06:00.283Z,98983.61
2022-09-20T19:11:08.007Z,98988.47
2022-09-20T19:16:17.362Z,98991.71
2022-09-20T19:21:42.190Z,98997.05
2022-09-20T19:26:44.805Z,99002.94
2022-09-20T19:31:53.548Z,99002.20
2022-09-20T19:37:08.535Z,99008.02
2022-09-20T19:42:37.424Z,99009.91
2022-09-20T19:47:47.240Z,99010.67
2022-09-20T19:52:50.064Z,99007.41
2022-09-20T19:58:11.991Z,99006.44
2022-09-20T20:03:15.792Z,99008.65
2022-09-20T20:08:51.233Z,99012.33
2022-09-20T20:14:07.991Z,99021.38
2022-09-20T20:19:33.343Z,99024.35
2022-09-20T20:25:05.048Z,99022.52
2022-09-20T20:30:14.911Z,99020.73
2022-09-20T20:35:17.261Z,99020.86
2022-09-20T20:40:19.592Z,99027.42
2022-09-20T20:45:22.065Z,99034.73
2022-09-20T20:50:25.395Z,99055.02
2022-09-20T20:55:27.573Z,99058.05
2022-09-20T21:00:30.066Z,99063.29
2022-09-20T21:05:32.342Z,99056.54
2022-09-20T21:10:34.073Z,99055.88
2022-09-20T21:15:35.998Z,99052.45
2022-09-20T21:20:38.499Z,99051.45
2022-09-20T21:25:40.347Z,99046.11
2022-09-20T21:30:42.149Z,99049.98
2022-09-20T21:35:50.007Z,99048.69
2022-09-20T21:41:11.331Z,99056.59
2022-09-20T21:46:19.173Z,99060.23
2022-09-20T21:51:21.799Z,99058.84
2022-09-20T21:56:27.516Z,99061.55
2022-09-20T22:01:33.579Z,99063.48
2022-09-20T22:06:45.498Z,99068.38
2022-09-20T22:11:48.772Z,99071.44
2022-09-20T22:16:51.424Z,99068.67
2022-09-20T22:21:53.666Z,99071.13
2022-09-20T22:26:55.734Z,99073.23
2022-09-20T22:31:57.421Z,99072.42
2022-09-20T22:36:59.207Z,99074.08
2022-09-20T22:42:00.970Z,99077.32
2022-09-20T22:47:03.188Z,99079.45
2022-09-20T22:52:05.023Z,99088.60
2022-09-20T22:57:06.971Z,99085.75
2022-09-20T23:02:08.673Z,99087.42
2022-09-20T23:07:11.082Z,99087.09
2022-09-20T23:12:12.914Z,99083.56
2022-09-20T23:17:14.650Z,99083.65
2022-09-20T23:22:16.392Z,99082.18
2022-09-20T23:27:18.757Z,99081.39
2022-09-20T23:32:20.512Z,99085.16
2022-09-20T23:37:42.957Z,99085.66
2022-09-20T23:42:44.979Z,99087.61
2022-09-20T23:47:49.784Z,99090.45
2022-09-20T23:52:51.580Z,99094.09
2022-09-20T23:58:00.351Z,99090.14
